Time;durP1;ratioP1;P1;durP2;ratioP2;P2;SDS_P1;SDS_P2;PMS_P1;PMS_P2;Temp;Humidity;BMP_temperature;BMP_pressure;BME280_temperature;BME280_humidity;BME280_pressure;Samples;Min_cycle;Max_cycle;Signal;HPM_P1;HPM_P2
2022/04/18 00:00:23;;;;;;;4.43;4.00;;;;;;;;;;5005202;28;21488;-64
2022/04/18 00:02:51;;;;;;;5.80;4.77;;;;;;;;;;4994184;28;20224;-64
2022/04/18 00:05:18;;;;;;;4.77;4.30;;;;;;;;;;5011792;28;20237;-63
2022/04/18 00:07:45;;;;;;;5.07;4.53;;;;;;;;;;4995006;28;20214;-64
2022/04/18 00:10:13;;;;;;;5.57;4.40;;;;;;;;;;4996680;28;20220;-64
2022/04/18 00:12:40;;;;;;;4.37;3.70;;;;;;;;;;5011873;28;20237;-63
2022/04/18 00:15:08;;;;;;;6.37;4.53;;;;;;;;;;5014879;28;20248;-64
2022/04/18 00:17:35;;;;;;;6.07;4.30;;;;;;;;;;5001158;28;20221;-62
2022/04/18 00:20:03;;;;;;;5.80;4.43;;;;;;;;;;5001171;28;20207;-62
2022/04/18 00:22:30;;;;;;;7.50;4.67;;;;;;;;;;5012711;28;20293;-64
2022/04/18 00:24:57;;;;;;;4.17;3.67;;;;;;;;;;4998183;28;20300;-64
2022/04/18 00:27:25;;;;;;;5.87;4.20;;;;;;;;;;5008123;28;20203;-62
2022/04/18 00:29:52;;;;;;;3.97;3.60;;;;;;;;;;5010960;28;20219;-64
2022/04/18 00:32:20;;;;;;;6.33;4.77;;;;;;;;;;4994868;28;20222;-63
2022/04/18 00:34:47;;;;;;;6.03;3.30;;;;;;;;;;5005761;28;20235;-64
2022/04/18 00:37:17;;;;;;;7.17;3.43;;;;;;;;;;5010994;28;20203;-64
2022/04/18 00:39:45;;;;;;;3.53;3.23;;;;;;;;;;5010999;28;20204;-63
2022/04/18 00:42:12;;;;;;;3.20;3.00;;;;;;;;;;5014511;28;20210;-63
2022/04/18 00:44:40;;;;;;;5.87;3.60;;;;;;;;;;5020812;28;20707;-62
2022/04/18 00:47:07;;;;;;;3.83;3.17;;;;;;;;;;5009715;28;20219;-63
2022/04/18 00:49:35;;;;;;;3.57;3.10;;;;;;;;;;5012632;28;20551;-64
2022/04/18 00:52:03;;;;;;;3.60;3.30;;;;;;;;;;4994218;28;20607;-63
2022/04/18 00:54:32;;;;;;;3.50;3.20;;;;;;;;;;5004818;28;20269;-64
2022/04/18 00:56:59;;;;;;;4.10;3.20;;;;;;;;;;5004873;28;20200;-62
2022/04/18 00:59:27;;;;;;;3.53;3.20;;;;;;;;;;4990775;28;20202;-63
2022/04/18 01:01:55;;;;;;;3.70;3.40;;;;;;;;;;5007972;28;20218;-63
2022/04/18 01:04:22;;;;;;;4.23;3.50;;;;;;;;;;4994500;28;20235;-63
2022/04/18 01:06:50;;;;;;;10.27;6.30;;;;;;;;;;5014640;28;20261;-63
2022/04/18 01:09:18;;;;;;;9.77;6.00;;;;;;;;;;5011812;28;20211;-61
2022/04/18 01:11:46;;;;;;;8.13;5.43;;;;;;;;;;5000880;28;20225;-64
2022/04/18 01:14:13;;;;;;;9.97;6.63;;;;;;;;;;4974442;28;20233;-64
2022/04/18 01:16:40;;;;;;;8.60;5.80;;;;;;;;;;5014894;28;20214;-63
2022/04/18 01:19:09;;;;;;;5.60;3.90;;;;;;;;;;4992663;28;20300;-63
2022/04/18 01:21:37;;;;;;;3.97;3.63;;;;;;;;;;5011136;28;22971;-63
2022/04/18 01:28:58;;;;;;;4.10;3.23;;;;;;;;;;5002840;28;20252;-64
2022/04/18 01:29:38;;;;;;;3.77;3.37;;;;;;;;;;5007978;28;20678;-63
2022/04/18 01:32:05;;;;;;;4.43;4.03;;;;;;;;;;4990865;28;20213;-62
2022/04/18 01:34:33;;;;;;;6.20;3.60;;;;;;;;;;5012291;28;20229;-62
2022/04/18 01:37:00;;;;;;;4.37;3.80;;;;;;;;;;4998467;28;20232;-63
2022/04/18 01:39:28;;;;;;;4.77;4.17;;;;;;;;;;4994654;28;20205;-63
2022/04/18 01:41:55;;;;;;;4.53;4.13;;;;;;;;;;4991780;28;20208;-63
2022/04/18 01:44:22;;;;;;;5.37;4.50;;;;;;;;;;4995169;28;20743;-63
2022/04/18 01:46:51;;;;;;;7.03;5.17;;;;;;;;;;5007098;28;20208;-63
2022/04/18 01:49:18;;;;;;;5.50;4.20;;;;;;;;;;4992491;28;20338;-63
2022/04/18 01:51:46;;;;;;;4.03;3.50;;;;;;;;;;4989897;28;20806;-64
2022/04/18 01:54:13;;;;;;;5.10;3.60;;;;;;;;;;4996677;28;20225;-63
2022/04/18 01:56:41;;;;;;;5.90;3.93;;;;;;;;;;5009350;28;21781;-63
2022/04/18 01:59:09;;;;;;;3.73;3.40;;;;;;;;;;5007164;28;20201;-64
2022/04/18 02:01:36;;;;;;;3.53;3.23;;;;;;;;;;4992630;28;20205;-63
2022/04/18 02:04:04;;;;;;;4.37;3.60;;;;;;;;;;5003796;28;20227;-63
2022/04/18 02:06:31;;;;;;;3.60;3.30;;;;;;;;;;5012103;28;20212;-63
2022/04/18 02:08:58;;;;;;;4.10;3.43;;;;;;;;;;5021925;28;20259;-64
2022/04/18 02:11:26;;;;;;;3.87;3.57;;;;;;;;;;5004528;28;20550;-63
2022/04/18 02:13:53;;;;;;;4.20;3.80;;;;;;;;;;4999213;28;20240;-64
2022/04/18 02:16:21;;;;;;;4.03;3.50;;;;;;;;;;5010779;28;20230;-63
2022/04/18 02:18:48;;;;;;;3.93;3.53;;;;;;;;;;4993679;28;20228;-63
2022/04/18 02:21:17;;;;;;;4.10;3.70;;;;;;;;;;4990403;28;20354;-63
2022/04/18 02:23:44;;;;;;;4.60;4.10;;;;;;;;;;5011680;28;20279;-64
2022/04/18 02:26:12;;;;;;;4.67;3.90;;;;;;;;;;5008830;28;20228;-63
2022/04/18 02:28:40;;;;;;;5.10;4.10;;;;;;;;;;5010731;28;20217;-63
2022/04/18 02:31:09;;;;;;;5.67;3.97;;;;;;;;;;5008170;28;20307;-63
2022/04/18 02:33:36;;;;;;;3.97;3.57;;;;;;;;;;5010919;28;20231;-64
2022/04/18 02:36:04;;;;;;;3.83;3.30;;;;;;;;;;4997862;28;20256;-63
2022/04/18 02:38:31;;;;;;;4.20;3.80;;;;;;;;;;5009472;28;20209;-64
2022/04/18 02:40:58;;;;;;;4.20;3.80;;;;;;;;;;4997559;28;20266;-63
2022/04/18 02:43:26;;;;;;;4.30;3.63;;;;;;;;;;5019297;28;22693;-63
2022/04/18 02:45:53;;;;;;;3.77;3.47;;;;;;;;;;5020980;28;20204;-63
2022/04/18 02:48:21;;;;;;;4.23;3.77;;;;;;;;;;5006414;28;20236;-63
2022/04/18 02:50:48;;;;;;;4.43;3.53;;;;;;;;;;4997067;28;20212;-63
2022/04/18 02:53:15;;;;;;;4.00;3.60;;;;;;;;;;5012146;28;21086;-63
2022/04/18 02:55:43;;;;;;;4.90;3.70;;;;;;;;;;4999564;28;20650;-64
2022/04/18 02:58:10;;;;;;;4.57;4.13;;;;;;;;;;5001857;28;20557;-63
2022/04/18 03:00:38;;;;;;;4.27;3.73;;;;;;;;;;5005611;28;20205;-63
2022/04/18 03:03:05;;;;;;;3.77;3.47;;;;;;;;;;4997225;28;20214;-63
2022/04/18 03:05:33;;;;;;;4.17;3.67;;;;;;;;;;4999468;28;20232;-63
2022/04/18 03:08:00;;;;;;;3.70;3.40;;;;;;;;;;5020366;28;20206;-62
2022/04/18 03:13:14;;;;;;;4.83;3.73;;;;;;;;;;5023745;28;20666;-63
2022/04/18 03:15:42;;;;;;;4.40;4.00;;;;;;;;;;4990403;28;20325;-63
2022/04/18 03:18:10;;;;;;;5.00;3.93;;;;;;;;;;5000314;28;20683;-63
2022/04/18 03:20:37;;;;;;;4.77;3.63;;;;;;;;;;5002731;28;20211;-63
2022/04/18 03:23:05;;;;;;;4.40;3.77;;;;;;;;;;4995477;28;20198;-63
2022/04/18 03:25:33;;;;;;;4.10;3.70;;;;;;;;;;4993890;28;20239;-64
2022/04/18 03:28:00;;;;;;;5.17;4.13;;;;;;;;;;4991045;28;20242;-63
2022/04/18 03:30:28;;;;;;;4.33;3.83;;;;;;;;;;4994774;28;20218;-64
2022/04/18 03:32:55;;;;;;;5.70;3.97;;;;;;;;;;4994169;28;20295;-63
2022/04/18 03:35:22;;;;;;;8.37;4.10;;;;;;;;;;5014616;28;20234;-63
2022/04/18 03:40:36;;;;;;;4.13;3.73;;;;;;;;;;5008606;28;20733;-62
2022/04/18 03:43:03;;;;;;;6.17;4.13;;;;;;;;;;5001521;28;20211;-61
2022/04/18 03:45:31;;;;;;;5.50;3.83;;;;;;;;;;4992937;28;20226;-63
2022/04/18 03:47:58;;;;;;;4.23;3.83;;;;;;;;;;5020536;28;20216;-63
2022/04/18 03:50:26;;;;;;;4.07;3.67;;;;;;;;;;5009775;28;20232;-63
2022/04/18 03:52:53;;;;;;;4.43;4.03;;;;;;;;;;4993936;28;20199;-63
2022/04/18 03:55:21;;;;;;;4.17;3.77;;;;;;;;;;4995833;28;20240;-63
2022/04/18 03:57:48;;;;;;;5.43;4.00;;;;;;;;;;5008451;28;21095;-64
2022/04/18 04:00:17;;;;;;;5.57;4.00;;;;;;;;;;4987872;28;20216;-64
2022/04/18 04:02:44;;;;;;;4.50;3.87;;;;;;;;;;4989802;28;20698;-64
2022/04/18 04:05:11;;;;;;;5.80;4.30;;;;;;;;;;5009615;28;20240;-63
2022/04/18 04:07:39;;;;;;;6.63;4.40;;;;;;;;;;5008187;28;20255;-62
2022/04/18 04:10:06;;;;;;;6.00;4.57;;;;;;;;;;4989720;28;20262;-62
2022/04/18 04:12:37;;;;;;;6.80;4.53;;;;;;;;;;5013972;28;20215;-63
2022/04/18 04:15:04;;;;;;;5.67;4.20;;;;;;;;;;4993279;28;20236;-64
2022/04/18 04:17:32;;;;;;;7.07;4.33;;;;;;;;;;4995147;28;20303;-63
2022/04/18 04:20:19;;;;;;;6.53;4.70;;;;;;;;;;5003840;28;20632;-63
2022/04/18 04:22:48;;;;;;;5.47;4.60;;;;;;;;;;5012554;28;20215;-64
2022/04/18 04:25:16;;;;;;;5.07;4.20;;;;;;;;;;5004200;28;20238;-63
2022/04/18 04:27:44;;;;;;;5.53;4.20;;;;;;;;;;4999671;28;20208;-63
2022/04/18 04:30:11;;;;;;;4.17;3.77;;;;;;;;;;4991904;28;20555;-63
2022/04/18 04:32:38;;;;;;;6.37;4.43;;;;;;;;;;4988741;28;20299;-63
2022/04/18 04:35:06;;;;;;;5.23;4.57;;;;;;;;;;5001192;28;20267;-64
2022/04/18 04:37:33;;;;;;;4.87;4.30;;;;;;;;;;4992288;28;21277;-63
2022/04/18 04:40:01;;;;;;;6.50;4.73;;;;;;;;;;5004228;28;20220;-63
2022/04/18 04:42:28;;;;;;;5.40;4.00;;;;;;;;;;4992556;28;20203;-63
2022/04/18 04:44:57;;;;;;;4.93;4.53;;;;;;;;;;4998904;28;20232;-64
2022/04/18 04:47:25;;;;;;;5.97;4.93;;;;;;;;;;5006995;28;20204;-63
2022/04/18 04:49:52;;;;;;;5.73;4.53;;;;;;;;;;4999342;28;20759;-63
2022/04/18 04:52:20;;;;;;;5.40;4.90;;;;;;;;;;5003688;28;20207;-63
2022/04/18 04:54:49;;;;;;;4.73;4.33;;;;;;;;;;5007295;28;20230;-64
2022/04/18 04:57:16;;;;;;;5.27;4.63;;;;;;;;;;4995843;28;20209;-64
2022/04/18 04:59:44;;;;;;;5.00;4.50;;;;;;;;;;4994651;28;20199;-63
2022/04/18 05:02:11;;;;;;;5.03;4.53;;;;;;;;;;4994600;28;20299;-63
2022/04/18 05:04:38;;;;;;;7.87;5.10;;;;;;;;;;5001204;28;20229;-63
2022/04/18 05:07:07;;;;;;;8.60;5.47;;;;;;;;;;5001243;28;20678;-64
2022/04/18 05:09:34;;;;;;;6.33;5.57;;;;;;;;;;4994982;28;20212;-63
2022/04/18 05:12:02;;;;;;;7.03;6.20;;;;;;;;;;5000183;28;20219;-62
2022/04/18 05:14:29;;;;;;;7.50;6.70;;;;;;;;;;5010229;28;20247;-63
2022/04/18 05:16:57;;;;;;;11.37;8.97;;;;;;;;;;5002566;28;20236;-63
2022/04/18 05:19:25;;;;;;;10.03;7.23;;;;;;;;;;5011642;28;20203;-62
2022/04/18 05:21:52;;;;;;;8.43;6.67;;;;;;;;;;5009154;28;20219;-63
2022/04/18 05:24:19;;;;;;;10.00;7.30;;;;;;;;;;4999246;28;20733;-61
2022/04/18 05:26:47;;;;;;;9.97;6.73;;;;;;;;;;5000414;28;20222;-63
2022/04/18 05:29:15;;;;;;;9.47;6.80;;;;;;;;;;5023795;28;20207;-64
2022/04/18 05:31:42;;;;;;;8.77;6.80;;;;;;;;;;5016490;28;20620;-63
2022/04/18 05:34:09;;;;;;;9.57;7.17;;;;;;;;;;5009553;28;20326;-63
2022/04/18 05:36:37;;;;;;;8.30;6.60;;;;;;;;;;4995257;28;20298;-63
2022/04/18 05:39:04;;;;;;;7.93;5.80;;;;;;;;;;5013983;28;20208;-65
2022/04/18 05:41:31;;;;;;;8.93;5.73;;;;;;;;;;4995139;28;21188;-63
2022/04/18 05:43:59;;;;;;;7.03;5.10;;;;;;;;;;5009779;28;20634;-62
2022/04/18 05:46:27;;;;;;;7.00;5.20;;;;;;;;;;4995487;28;20578;-63
2022/04/18 05:48:55;;;;;;;5.37;3.83;;;;;;;;;;5013098;28;20206;-64
2022/04/18 05:51:25;;;;;;;4.60;4.10;;;;;;;;;;5013859;28;20677;-63
2022/04/18 05:53:52;;;;;;;7.43;4.30;;;;;;;;;;5008373;28;20631;-66
2022/04/18 05:56:19;;;;;;;5.30;4.00;;;;;;;;;;5015712;28;20229;-64
2022/04/18 05:58:47;;;;;;;4.30;3.90;;;;;;;;;;5016063;28;20632;-64
2022/04/18 06:01:14;;;;;;;4.63;3.80;;;;;;;;;;5001864;28;20206;-63
2022/04/18 06:03:42;;;;;;;5.13;4.00;;;;;;;;;;5004471;28;20219;-64
2022/04/18 06:06:10;;;;;;;6.57;4.00;;;;;;;;;;5016006;28;20242;-62
2022/04/18 06:08:37;;;;;;;8.23;4.37;;;;;;;;;;4998149;28;20211;-63
2022/04/18 06:11:04;;;;;;;4.97;4.10;;;;;;;;;;5019754;28;20473;-62
2022/04/18 06:13:32;;;;;;;5.70;4.00;;;;;;;;;;5021884;28;20207;-64
2022/04/18 06:16:00;;;;;;;4.33;3.93;;;;;;;;;;5006330;28;20230;-64
2022/04/18 06:18:28;;;;;;;5.47;4.13;;;;;;;;;;5018082;28;20211;-64
2022/04/18 06:20:55;;;;;;;8.57;6.30;;;;;;;;;;5000417;28;20206;-63
2022/04/18 06:23:23;;;;;;;5.30;4.33;;;;;;;;;;5012412;28;20198;-63
2022/04/18 06:25:50;;;;;;;4.60;3.90;;;;;;;;;;5017417;28;20222;-64
2022/04/18 06:28:20;;;;;;;5.43;3.90;;;;;;;;;;5003421;28;20223;-63
2022/04/18 06:30:48;;;;;;;5.93;4.77;;;;;;;;;;5020272;28;20198;-62
2022/04/18 06:33:16;;;;;;;6.07;4.27;;;;;;;;;;5018176;28;20281;-61
2022/04/18 06:35:46;;;;;;;3.97;3.67;;;;;;;;;;4997732;28;20235;-63
2022/04/18 06:38:14;;;;;;;5.67;3.77;;;;;;;;;;5014186;28;20210;-64
2022/04/18 06:40:42;;;;;;;5.07;4.13;;;;;;;;;;4999433;28;20213;-63
2022/04/18 06:43:09;;;;;;;4.70;3.80;;;;;;;;;;5005081;28;20207;-63
2022/04/18 06:45:36;;;;;;;4.73;3.80;;;;;;;;;;5010429;28;20262;-64
2022/04/18 06:48:04;;;;;;;5.93;3.87;;;;;;;;;;4990130;28;20239;-64
2022/04/18 06:50:31;;;;;;;3.67;3.37;;;;;;;;;;4986667;28;20277;-63
2022/04/18 06:52:59;;;;;;;4.77;3.80;;;;;;;;;;5002065;28;20237;-62
2022/04/18 06:56:58;;;;;;;4.77;3.70;;;;;;;;;;5018462;28;20297;-64
2022/04/18 06:58:14;;;;;;;4.57;3.93;;;;;;;;;;5017433;28;20209;-64
2022/04/18 07:00:41;;;;;;;6.00;4.60;;;;;;;;;;5006315;28;20203;-63
2022/04/18 07:03:09;;;;;;;4.60;4.20;;;;;;;;;;4998216;28;20199;-64
2022/04/18 07:05:36;;;;;;;4.10;3.70;;;;;;;;;;4999198;28;21124;-64
2022/04/18 07:08:04;;;;;;;4.20;3.80;;;;;;;;;;5006043;28;20563;-62
2022/04/18 07:10:32;;;;;;;3.97;3.57;;;;;;;;;;5006778;28;20286;-64
2022/04/18 07:12:59;;;;;;;4.40;4.00;;;;;;;;;;5000896;28;20726;-64
2022/04/18 07:15:27;;;;;;;4.23;3.83;;;;;;;;;;5016868;28;20234;-63
2022/04/18 07:17:54;;;;;;;4.40;4.00;;;;;;;;;;5011634;28;20653;-62
2022/04/18 07:20:22;;;;;;;4.80;3.63;;;;;;;;;;5009282;28;20206;-63
2022/04/18 07:22:50;;;;;;;4.00;3.57;;;;;;;;;;4986686;28;20206;-62
2022/04/18 07:25:17;;;;;;;3.50;3.20;;;;;;;;;;4984266;28;20663;-63
2022/04/18 07:27:45;;;;;;;5.50;3.77;;;;;;;;;;5003559;28;20202;-61
2022/04/18 07:30:12;;;;;;;3.80;3.47;;;;;;;;;;5011152;28;20580;-63
2022/04/18 07:32:41;;;;;;;5.23;4.33;;;;;;;;;;4991845;28;20207;-62
2022/04/18 07:35:09;;;;;;;4.20;3.70;;;;;;;;;;4994498;28;20692;-64
2022/04/18 07:37:37;;;;;;;4.23;3.50;;;;;;;;;;4996110;28;20284;-64
2022/04/18 07:40:05;;;;;;;3.80;3.40;;;;;;;;;;4990183;28;20214;-64
2022/04/18 07:42:32;;;;;;;3.70;3.30;;;;;;;;;;4986808;28;20233;-63
2022/04/18 07:44:59;;;;;;;4.70;3.50;;;;;;;;;;5001135;28;20227;-62
2022/04/18 07:47:27;;;;;;;3.80;3.20;;;;;;;;;;5008642;28;20625;-61
2022/04/18 07:49:54;;;;;;;3.60;3.23;;;;;;;;;;5007799;28;20215;-63
2022/04/18 07:52:21;;;;;;;3.90;3.50;;;;;;;;;;4998738;28;20637;-62
2022/04/18 07:54:49;;;;;;;3.77;3.47;;;;;;;;;;4998528;28;20231;-61
2022/04/18 07:57:17;;;;;;;4.07;3.30;;;;;;;;;;4984562;28;20241;-64
2022/04/18 07:59:45;;;;;;;3.50;3.17;;;;;;;;;;4984710;28;20273;-61
2022/04/18 08:02:12;;;;;;;4.67;3.07;;;;;;;;;;4982735;28;20202;-62
2022/04/18 08:04:40;;;;;;;3.27;2.97;;;;;;;;;;4991264;28;20247;-62
2022/04/18 08:07:07;;;;;;;3.00;2.80;;;;;;;;;;5011740;28;20230;-61
2022/04/18 08:09:34;;;;;;;3.63;3.33;;;;;;;;;;4996175;28;20829;-63
2022/04/18 08:12:02;;;;;;;4.63;3.40;;;;;;;;;;4989076;28;20214;-63
2022/04/18 08:14:30;;;;;;;3.40;3.10;;;;;;;;;;4974684;28;20226;-63
2022/04/18 08:16:57;;;;;;;3.93;3.20;;;;;;;;;;4993999;28;20239;-63
2022/04/18 08:19:25;;;;;;;3.63;3.27;;;;;;;;;;5007275;28;20285;-64
2022/04/18 08:21:54;;;;;;;3.57;3.27;;;;;;;;;;4995105;28;20208;-62
2022/04/18 08:24:21;;;;;;;3.33;3.13;;;;;;;;;;4993726;28;20225;-62
2022/04/18 08:26:49;;;;;;;3.90;3.50;;;;;;;;;;4990023;28;20218;-62
2022/04/18 08:29:18;;;;;;;3.37;3.07;;;;;;;;;;4989501;28;20276;-62
2022/04/18 08:31:45;;;;;;;4.33;3.27;;;;;;;;;;4988401;28;20612;-61
2022/04/18 08:34:18;;;;;;;3.10;2.80;;;;;;;;;;5000544;28;20241;-63
2022/04/18 08:36:45;;;;;;;4.10;2.77;;;;;;;;;;4983084;28;20234;-63
2022/04/18 08:39:13;;;;;;;3.10;2.83;;;;;;;;;;4981437;28;20206;-63
2022/04/18 08:41:44;;;;;;;3.07;2.83;;;;;;;;;;5000179;28;20206;-61
2022/04/18 08:44:12;;;;;;;3.60;3.17;;;;;;;;;;4983842;28;21507;-63
2022/04/18 08:46:40;;;;;;;3.47;3.13;;;;;;;;;;5000683;28;20213;-62
2022/04/18 08:54:58;;;;;;;2.80;2.60;;;;;;;;;;4944064;28;20817;-63
2022/04/18 08:57:25;;;;;;;3.50;3.20;;;;;;;;;;4995866;28;20237;-61
2022/04/18 08:59:53;;;;;;;3.20;3.00;;;;;;;;;;5010344;28;20298;-64
2022/04/18 09:02:20;;;;;;;3.90;2.93;;;;;;;;;;4989910;28;20207;-62
2022/04/18 09:04:49;;;;;;;3.77;3.03;;;;;;;;;;4983168;28;20234;-62
2022/04/18 09:07:17;;;;;;;3.40;3.10;;;;;;;;;;4996374;28;20798;-62
2022/04/18 09:09:44;;;;;;;3.40;3.10;;;;;;;;;;4986971;28;20214;-62
2022/04/18 09:12:24;;;;;;;3.30;3.00;;;;;;;;;;4996243;28;20633;-61
2022/04/18 09:14:56;;;;;;;3.67;3.37;;;;;;;;;;5004608;28;20520;-62
2022/04/18 09:17:28;;;;;;;3.93;3.53;;;;;;;;;;4986296;28;20230;-62
2022/04/18 09:20:08;;;;;;;3.67;3.27;;;;;;;;;;5009466;28;20206;-61
2022/04/18 09:22:43;;;;;;;3.40;3.03;;;;;;;;;;5012138;28;20222;-61
2022/04/18 09:25:14;;;;;;;3.30;3.00;;;;;;;;;;5009011;28;20237;-63
2022/04/18 09:27:41;;;;;;;4.03;3.63;;;;;;;;;;5009539;28;20203;-62
2022/04/18 09:30:10;;;;;;;3.40;3.00;;;;;;;;;;5008957;28;20211;-62
2022/04/18 09:32:41;;;;;;;3.97;3.00;;;;;;;;;;5020345;28;20206;-62
2022/04/18 09:35:09;;;;;;;3.20;2.90;;;;;;;;;;4995099;28;20241;-61
2022/04/18 09:37:37;;;;;;;4.63;3.37;;;;;;;;;;5000796;28;20245;-62
2022/04/18 09:40:04;;;;;;;5.80;3.23;;;;;;;;;;4993666;28;20203;-62
2022/04/18 09:42:32;;;;;;;3.67;3.10;;;;;;;;;;4985148;28;20203;-62
2022/04/18 09:44:59;;;;;;;3.70;3.00;;;;;;;;;;4992056;28;20816;-63
2022/04/18 09:47:33;;;;;;;3.90;3.00;;;;;;;;;;4991105;28;20258;-63
2022/04/18 09:50:58;;;;;;;5.07;3.03;;;;;;;;;;4988185;28;20749;-61
2022/04/18 09:53:02;;;;;;;4.10;3.70;;;;;;;;;;5007196;28;20205;-62
2022/04/18 09:55:30;;;;;;;4.47;3.20;;;;;;;;;;4993891;28;20272;-62
2022/04/18 09:58:04;;;;;;;3.43;3.10;;;;;;;;;;4989536;28;20301;-64
2022/04/18 10:00:51;;;;;;;4.07;3.17;;;;;;;;;;5012446;28;20349;-64
2022/04/18 10:03:19;;;;;;;3.83;3.43;;;;;;;;;;5016443;28;20214;-61
2022/04/18 10:05:49;;;;;;;5.53;3.77;;;;;;;;;;5009284;28;20219;-61
2022/04/18 10:08:16;;;;;;;4.40;3.17;;;;;;;;;;5004521;28;20926;-61
2022/04/18 10:10:43;;;;;;;4.23;3.20;;;;;;;;;;5008529;28;20218;-62
2022/04/18 10:13:11;;;;;;;3.73;3.20;;;;;;;;;;4989113;28;20210;-62
2022/04/18 10:15:39;;;;;;;3.40;3.00;;;;;;;;;;4998416;28;20265;-62
2022/04/18 10:18:07;;;;;;;3.70;3.30;;;;;;;;;;4996777;28;20227;-62
2022/04/18 10:20:54;;;;;;;4.67;3.60;;;;;;;;;;5019023;28;20208;-62
2022/04/18 10:23:33;;;;;;;3.67;3.20;;;;;;;;;;5014878;28;20294;-62
2022/04/18 10:26:17;;;;;;;4.50;3.70;;;;;;;;;;5012528;28;20210;-63
2022/04/18 10:28:46;;;;;;;4.77;3.30;;;;;;;;;;4996233;28;20234;-62
2022/04/18 10:31:43;;;;;;;3.53;3.23;;;;;;;;;;5003149;28;20211;-61
2022/04/18 10:34:12;;;;;;;3.13;2.87;;;;;;;;;;4984394;28;20269;-63
2022/04/18 10:36:48;;;;;;;3.40;3.10;;;;;;;;;;4994665;28;20249;-62
2022/04/18 10:39:16;;;;;;;3.73;3.27;;;;;;;;;;4990615;28;20206;-62
2022/04/18 10:41:46;;;;;;;3.30;3.10;;;;;;;;;;4986701;28;20361;-62
2022/04/18 10:44:15;;;;;;;3.50;3.20;;;;;;;;;;4994083;28;20219;-61
2022/04/18 10:46:42;;;;;;;4.40;3.10;;;;;;;;;;4988202;28;20705;-62
2022/04/18 10:49:17;;;;;;;6.37;4.83;;;;;;;;;;4987661;28;20210;-61
2022/04/18 10:51:45;;;;;;;3.70;3.40;;;;;;;;;;5010556;28;20217;-61
2022/04/18 10:54:18;;;;;;;4.07;3.37;;;;;;;;;;4992581;28;20281;-62
2022/04/18 10:56:57;;;;;;;3.50;3.17;;;;;;;;;;5006450;28;20838;-61
2022/04/18 10:59:29;;;;;;;3.63;3.33;;;;;;;;;;5010864;28;20207;-61
2022/04/18 11:01:58;;;;;;;5.37;3.60;;;;;;;;;;5017080;28;20221;-64
2022/04/18 11:04:47;;;;;;;4.07;3.67;;;;;;;;;;5017450;28;20235;-61
2022/04/18 11:07:15;;;;;;;4.00;3.53;;;;;;;;;;5010759;28;20203;-63
2022/04/18 11:09:48;;;;;;;4.93;3.30;;;;;;;;;;5005878;28;20218;-65
2022/04/18 11:12:21;;;;;;;3.23;2.93;;;;;;;;;;5012769;28;20213;-62
2022/04/18 11:15:04;;;;;;;3.57;3.10;;;;;;;;;;5000405;28;20597;-63
2022/04/18 11:17:33;;;;;;;4.17;3.10;;;;;;;;;;5004614;28;20229;-63
2022/04/18 11:20:30;;;;;;;3.60;3.07;;;;;;;;;;4988817;28;20207;-63
2022/04/18 11:23:34;;;;;;;3.73;3.33;;;;;;;;;;4987133;28;20498;-62
2022/04/18 11:26:02;;;;;;;4.43;3.50;;;;;;;;;;4904146;29;20812;-63
2022/04/18 11:28:32;;;;;;;3.93;3.47;;;;;;;;;;4993014;28;20206;-62
2022/04/18 11:31:00;;;;;;;3.63;3.30;;;;;;;;;;4998703;28;20261;-63
2022/04/18 11:33:27;;;;;;;3.03;2.73;;;;;;;;;;4988748;28;20214;-63
2022/04/18 11:36:02;;;;;;;3.67;3.37;;;;;;;;;;5001398;28;20261;-62
2022/04/18 11:38:29;;;;;;;4.23;3.37;;;;;;;;;;5002303;28;20226;-63
2022/04/18 11:40:57;;;;;;;3.33;3.03;;;;;;;;;;5000060;28;20209;-63
2022/04/18 11:43:25;;;;;;;3.70;2.93;;;;;;;;;;5013870;28;20211;-63
2022/04/18 11:46:03;;;;;;;3.43;3.13;;;;;;;;;;4989158;28;20215;-63
2022/04/18 11:48:30;;;;;;;3.60;3.00;;;;;;;;;;5010481;28;20339;-63
2022/04/18 11:50:58;;;;;;;3.10;2.90;;;;;;;;;;5004671;28;20211;-63
2022/04/18 11:53:31;;;;;;;3.90;2.80;;;;;;;;;;5002462;28;20211;-60
2022/04/18 11:55:58;;;;;;;3.50;3.20;;;;;;;;;;4998793;28;20354;-62
2022/04/18 11:58:26;;;;;;;3.15;2.95;;;;;;;;;;4997140;28;20229;-63
2022/04/18 12:06:45;;;;;;;6.18;4.28;;;;;;;;;;5025151;28;20206;-62
2022/04/18 12:09:13;;;;;;;3.75;3.45;;;;;;;;;;4982056;28;20432;-63
2022/04/18 12:11:41;;;;;;;3.70;3.20;;;;;;;;;;4987565;28;20459;-62
2022/04/18 12:14:09;;;;;;;3.75;3.28;;;;;;;;;;5003276;28;20742;-62
2022/04/18 12:16:38;;;;;;;4.45;3.70;;;;;;;;;;4991644;28;20211;-61
2022/04/18 12:19:06;;;;;;;3.50;3.20;;;;;;;;;;5009493;28;20262;-62
2022/04/18 12:21:34;;;;;;;3.95;3.55;;;;;;;;;;4987209;28;20215;-63
2022/04/18 12:24:01;;;;;;;3.45;3.15;;;;;;;;;;4994669;28;20233;-61
2022/04/18 12:26:35;;;;;;;3.50;3.20;;;;;;;;;;4983769;28;20222;-63
2022/04/18 12:29:06;;;;;;;3.67;3.35;;;;;;;;;;4979553;28;20584;-62
2022/04/18 12:31:33;;;;;;;3.60;3.20;;;;;;;;;;4990157;28;20218;-62
2022/04/18 12:34:01;;;;;;;3.15;2.85;;;;;;;;;;4983805;28;20250;-63
2022/04/18 12:36:36;;;;;;;3.17;2.83;;;;;;;;;;4985710;28;20771;-61
2022/04/18 12:39:05;;;;;;;3.50;3.20;;;;;;;;;;4988893;28;20237;-60
2022/04/18 12:41:34;;;;;;;3.50;3.17;;;;;;;;;;4993197;28;20207;-62
2022/04/18 12:44:02;;;;;;;3.50;2.97;;;;;;;;;;5011743;28;20233;-62
2022/04/18 12:46:31;;;;;;;3.20;2.90;;;;;;;;;;4994737;28;20579;-63
2022/04/18 12:49:04;;;;;;;3.00;2.75;;;;;;;;;;4999723;28;20217;-62
2022/04/18 12:51:35;;;;;;;3.70;2.75;;;;;;;;;;4985710;28;20208;-62
2022/04/18 12:54:02;;;;;;;3.38;2.90;;;;;;;;;;4988185;28;20235;-61
2022/04/18 12:56:30;;;;;;;3.00;2.80;;;;;;;;;;5000319;28;20220;-63
2022/04/18 12:59:04;;;;;;;3.00;2.80;;;;;;;;;;4989494;28;20337;-63
2022/04/18 13:01:34;;;;;;;2.90;2.70;;;;;;;;;;5005046;28;20305;-63
2022/04/18 13:04:18;;;;;;;3.28;2.97;;;;;;;;;;4976824;28;20289;-63
2022/04/18 13:06:54;;;;;;;3.28;2.85;;;;;;;;;;4993940;28;20207;-63
2022/04/18 13:09:22;;;;;;;3.50;3.20;;;;;;;;;;4995299;28;20202;-62
2022/04/18 13:11:59;;;;;;;3.40;3.10;;;;;;;;;;4996896;28;20211;-64
2022/04/18 13:14:27;;;;;;;4.63;3.38;;;;;;;;;;5000286;28;20236;-62
2022/04/18 13:17:05;;;;;;;3.90;3.40;;;;;;;;;;4998807;28;23007;-62
2022/04/18 13:19:33;;;;;;;3.35;3.03;;;;;;;;;;4984287;28;20684;-63
2022/04/18 13:22:00;;;;;;;4.60;3.90;;;;;;;;;;4981809;28;20222;-62
2022/04/18 13:24:27;;;;;;;5.80;3.38;;;;;;;;;;4976857;28;20237;-63
2022/04/18 13:26:55;;;;;;;3.70;3.40;;;;;;;;;;4981911;28;20218;-61
2022/04/18 13:29:22;;;;;;;4.85;3.55;;;;;;;;;;4990976;28;20277;-62
2022/04/18 13:31:50;;;;;;;3.70;3.22;;;;;;;;;;4973876;28;20215;-61
2022/04/18 13:34:18;;;;;;;3.08;2.88;;;;;;;;;;5006033;28;20234;-64
2022/04/18 13:36:45;;;;;;;3.90;2.90;;;;;;;;;;5011247;28;20219;-65
2022/04/18 13:39:13;;;;;;;4.57;3.80;;;;;;;;;;4972241;28;20622;-64
2022/04/18 13:41:42;;;;;;;3.30;3.00;;;;;;;;;;4984685;28;20587;-62
2022/04/18 13:44:10;;;;;;;3.50;3.20;;;;;;;;;;4983475;28;20231;-64
2022/04/18 13:46:39;;;;;;;3.65;3.35;;;;;;;;;;4995034;28;20211;-62
2022/04/18 13:49:08;;;;;;;3.45;3.00;;;;;;;;;;4970008;28;20215;-62
2022/04/18 13:51:36;;;;;;;3.33;3.03;;;;;;;;;;4978954;28;20594;-61
2022/04/18 13:54:05;;;;;;;4.35;3.30;;;;;;;;;;4979116;28;20725;-62
2022/04/18 13:56:32;;;;;;;3.80;2.78;;;;;;;;;;4980800;28;20213;-62
2022/04/18 13:59:00;;;;;;;3.83;3.33;;;;;;;;;;4982499;28;20226;-62
2022/04/18 14:01:28;;;;;;;4.35;3.50;;;;;;;;;;4986317;28;20212;-63
2022/04/18 14:03:56;;;;;;;4.07;3.67;;;;;;;;;;4982769;28;20231;-63
2022/04/18 14:06:26;;;;;;;3.63;3.33;;;;;;;;;;4973763;28;20231;-63
2022/04/18 14:08:55;;;;;;;3.85;3.28;;;;;;;;;;4973789;28;20219;-63
2022/04/18 14:11:23;;;;;;;3.85;3.55;;;;;;;;;;5002314;28;20226;-64
2022/04/18 14:13:50;;;;;;;3.45;3.15;;;;;;;;;;4969814;28;20233;-63
2022/04/18 14:21:46;;;;;;;3.35;3.15;;;;;;;;;;4985016;28;20206;-62
2022/04/18 14:24:14;;;;;;;3.28;2.97;;;;;;;;;;4989853;28;20222;-62
2022/04/18 14:26:42;;;;;;;4.15;3.20;;;;;;;;;;4985282;28;20281;-63
2022/04/18 14:29:09;;;;;;;4.57;3.38;;;;;;;;;;4977038;28;20211;-63
2022/04/18 14:31:37;;;;;;;3.65;3.35;;;;;;;;;;4970719;28;20445;-64
2022/04/18 14:34:04;;;;;;;3.90;3.58;;;;;;;;;;4994112;28;20233;-62
2022/04/18 14:36:32;;;;;;;4.00;3.60;;;;;;;;;;4973490;28;20208;-63
2022/04/18 14:39:00;;;;;;;3.75;3.38;;;;;;;;;;4986210;28;20235;-60
2022/04/18 14:41:28;;;;;;;3.70;3.40;;;;;;;;;;4972483;28;20211;-62
2022/04/18 14:43:55;;;;;;;4.90;3.55;;;;;;;;;;4994514;28;20223;-62
2022/04/18 14:46:22;;;;;;;4.22;3.83;;;;;;;;;;4996960;28;20226;-62
2022/04/18 14:48:54;;;;;;;3.65;3.33;;;;;;;;;;4996967;28;20338;-62
2022/04/18 14:51:25;;;;;;;3.83;3.42;;;;;;;;;;5006915;28;20280;-62
2022/04/18 14:53:53;;;;;;;3.85;3.55;;;;;;;;;;5009382;28;20218;-62
2022/04/18 14:56:21;;;;;;;3.60;3.30;;;;;;;;;;5004406;28;20204;-61
2022/04/18 14:58:48;;;;;;;3.63;3.33;;;;;;;;;;5002198;28;20228;-62
2022/04/18 15:01:16;;;;;;;3.80;3.35;;;;;;;;;;4992456;28;20477;-62
2022/04/18 15:03:45;;;;;;;3.58;3.28;;;;;;;;;;4990526;28;20326;-62
2022/04/18 15:06:13;;;;;;;3.50;3.20;;;;;;;;;;5011465;28;20210;-62
2022/04/18 15:08:40;;;;;;;3.67;3.33;;;;;;;;;;4992972;28;20207;-62
2022/04/18 15:11:08;;;;;;;3.58;3.28;;;;;;;;;;5006684;28;20493;-63
2022/04/18 15:13:37;;;;;;;3.63;3.33;;;;;;;;;;4998232;28;20217;-62
2022/04/18 15:16:06;;;;;;;3.00;2.80;;;;;;;;;;4993902;28;20677;-62
2022/04/18 15:18:33;;;;;;;3.88;3.58;;;;;;;;;;5018259;28;21149;-62